createdAt,value
2024-01-11T00:02:39.274Z,13.20
2024-01-11T00:07:40.996Z,13.88
2024-01-11T00:12:42.964Z,13.10
2024-01-11T00:17:44.859Z,13.48
2024-01-11T00:22:46.778Z,13.32
2024-01-11T00:27:48.574Z,14.38
2024-01-11T00:32:50.556Z,13.45
2024-01-11T00:37:52.433Z,14.20
2024-01-11T00:42:54.305Z,13.52
2024-01-11T00:47:56.264Z,13.38
2024-01-11T00:52:58.341Z,11.80
2024-01-11T00:58:00.333Z,13.77
2024-01-11T01:03:02.114Z,13.20
2024-01-11T01:08:04.238Z,14.35
2024-01-11T01:13:07.008Z,13.75
2024-01-11T01:18:11.307Z,14.68
2024-01-11T01:23:13.334Z,13.90
2024-01-11T01:28:15.250Z,13.55
2024-01-11T01:33:17.216Z,13.82
2024-01-11T01:38:19.111Z,12.68
2024-01-11T01:43:20.778Z,11.20
2024-01-11T01:48:23.004Z,12.05
2024-01-11T01:53:29.524Z,12.23
2024-01-11T02:03:33.225Z,12.43
2024-01-11T02:08:35.863Z,12.90
2024-01-11T02:13:38.614Z,12.57
2024-01-11T02:18:40.645Z,13.13
2024-01-11T02:24:02.945Z,13.43
2024-01-11T02:29:04.759Z,13.00
2024-01-11T02:34:06.756Z,12.35
2024-01-11T02:39:08.880Z,12.80
2024-01-11T02:44:10.668Z,12.15
2024-01-11T02:49:12.539Z,11.95
2024-01-11T02:54:15.653Z,12.32
2024-01-11T02:59:17.492Z,11.88
2024-01-11T03:04:19.362Z,12.30
2024-01-11T03:09:21.316Z,12.20
2024-01-11T03:14:23.193Z,11.98
2024-01-11T03:19:25.081Z,12.73
2024-01-11T03:24:26.897Z,12.15
2024-01-11T03:29:29.002Z,14.45
2024-01-11T03:34:30.856Z,14.75
2024-01-11T03:39:32.625Z,16.38
2024-01-11T03:44:34.355Z,15.27
2024-01-11T03:49:36.386Z,13.98
2024-01-11T03:54:39.478Z,12.82
2024-01-11T03:59:42.112Z,11.93
2024-01-11T04:04:43.986Z,13.15
2024-01-11T04:09:45.949Z,11.90
2024-01-11T04:14:47.788Z,12.20
2024-01-11T04:19:49.504Z,11.82
2024-01-11T04:24:51.185Z,11.65
2024-01-11T04:29:53.105Z,11.13
2024-01-11T04:34:56.179Z,11.77
2024-01-11T04:40:01.298Z,11.95
2024-01-11T04:45:03.295Z,11.55
2024-01-11T04:50:06.047Z,11.63
2024-01-11T04:55:08.200Z,12.07
2024-01-11T05:00:10.570Z,11.82
2024-01-11T05:05:12.308Z,12.13
2024-01-11T05:10:14.100Z,12.63
2024-01-11T05:15:15.976Z,13.63
2024-01-11T05:20:17.831Z,13.70
2024-01-11T05:25:19.492Z,14.90
2024-01-11T05:30:21.355Z,14.20
2024-01-11T05:35:25.343Z,14.55
2024-01-11T05:40:27.254Z,14.70
2024-01-11T05:45:36.269Z,15.35
2024-01-11T05:50:48.312Z,15.10
2024-01-11T05:55:51.959Z,15.02
2024-01-11T06:00:56.964Z,14.77
2024-01-11T06:05:58.757Z,14.50
2024-01-11T06:11:02.212Z,13.10
2024-01-11T06:16:04.393Z,15.23
2024-01-11T06:21:06.737Z,13.35
2024-01-11T06:26:09.300Z,12.70
2024-01-11T06:31:11.710Z,16.35
2024-01-11T06:36:22.656Z,18.83
2024-01-11T06:41:24.540Z,16.85
2024-01-11T06:46:26.284Z,14.20
2024-01-11T06:51:28.217Z,12.82
2024-01-11T06:56:30.032Z,12.90
2024-01-11T07:01:31.930Z,12.13
2024-01-11T07:06:33.938Z,12.20
2024-01-11T07:11:36.062Z,11.65
2024-01-11T07:16:38.926Z,10.38
2024-01-11T07:21:40.806Z,12.77
2024-01-11T07:26:43.041Z,11.23
2024-01-11T07:31:44.777Z,11.18
2024-01-11T07:36:46.674Z,11.77
2024-01-11T07:41:48.836Z,12.13
2024-01-11T07:46:54.247Z,11.68
2024-01-11T07:51:57.828Z,11.75
2024-01-11T07:56:59.648Z,11.25
2024-01-11T08:02:01.681Z,11.68
2024-01-11T08:07:03.604Z,11.98
2024-01-11T08:12:05.765Z,15.85
2024-01-11T08:17:07.774Z,15.60
2024-01-11T08:22:10.914Z,14.55
2024-01-11T08:27:12.857Z,16.17
2024-01-11T08:32:23.919Z,15.70
2024-01-11T08:37:33.527Z,12.27
2024-01-11T08:42:35.423Z,15.50
2024-01-11T08:47:39.625Z,16.00
2024-01-11T08:52:42.946Z,18.08
2024-01-11T08:57:44.922Z,18.45
2024-01-11T09:02:47.524Z,17.60
2024-01-11T09:07:51.577Z,16.52
2024-01-11T09:12:53.958Z,17.05
2024-01-11T09:17:55.808Z,16.90
2024-01-11T09:22:57.601Z,16.60
2024-01-11T09:27:59.889Z,15.60
2024-01-11T09:33:02.563Z,16.75
2024-01-11T09:38:05.228Z,15.93
2024-01-11T09:43:09.777Z,16.17
2024-01-11T09:48:12.645Z,17.08
2024-01-11T09:53:15.591Z,17.08
2024-01-11T09:58:18.123Z,15.52
2024-01-11T10:03:20.485Z,17.48
2024-01-11T10:08:23.339Z,17.73
2024-01-11T10:13:32.470Z,16.77
2024-01-11T10:18:34.346Z,17.70
2024-01-11T10:23:38.613Z,16.13
2024-01-11T10:28:40.555Z,15.95
2024-01-11T10:33:44.091Z,16.92
2024-01-11T10:38:48.570Z,15.43
2024-01-11T10:43:51.318Z,16.98
2024-01-11T10:48:58.165Z,32.08
2024-01-11T10:54:02.961Z,15.70
2024-01-11T10:59:06.067Z,15.60
2024-01-11T11:04:09.449Z,14.82
2024-01-11T11:09:13.324Z,15.65
2024-01-11T11:14:16.435Z,15.57
2024-01-11T11:19:20.615Z,16.25
2024-01-11T11:24:22.556Z,15.18
2024-01-11T11:29:24.778Z,15.93
2024-01-11T11:34:48.251Z,15.65
2024-01-11T11:39:50.476Z,14.55
2024-01-11T11:44:52.486Z,14.95
2024-01-11T11:50:01.044Z,14.77
2024-01-11T11:55:03.687Z,13.82
2024-01-11T12:00:06.811Z,13.77
2024-01-11T12:05:08.873Z,13.80
2024-01-11T12:10:10.800Z,10.40
2024-01-11T12:15:12.800Z,11.48
2024-01-11T12:20:15.746Z,11.93
2024-01-11T12:25:17.903Z,12.05
2024-01-11T12:30:20.182Z,12.70
2024-01-11T12:35:22.489Z,13.07
2024-01-11T12:40:24.324Z,13.00
2024-01-11T12:45:27.471Z,12.68
2024-01-11T12:50:34.557Z,12.23
2024-01-11T12:55:47.674Z,12.88
2024-01-11T13:00:54.092Z,13.55
2024-01-11T13:05:56.725Z,12.32
2024-01-11T13:10:59.065Z,12.93
2024-01-11T13:16:00.908Z,13.27
2024-01-11T13:21:04.286Z,12.55
2024-01-11T13:26:06.306Z,12.57
2024-01-11T13:31:11.144Z,12.15
2024-01-11T13:36:13.280Z,12.18
2024-01-11T13:41:15.257Z,12.95
2024-01-11T13:46:19.078Z,11.38
2024-01-11T13:51:20.886Z,11.52
2024-01-11T13:56:24.366Z,10.38
2024-01-11T14:01:26.229Z,10.23
2024-01-11T14:06:28.333Z,9.98
2024-01-11T14:11:30.326Z,9.75
2024-01-11T14:16:33.182Z,9.75
2024-01-11T14:21:35.006Z,9.00
2024-01-11T14:26:37.089Z,9.55
2024-01-11T14:31:40.370Z,8.35
2024-01-11T14:36:42.279Z,8.48
2024-01-11T14:41:44.159Z,8.50
2024-01-11T14:46:46.253Z,8.27
2024-01-11T14:51:48.003Z,8.02
2024-01-11T14:56:50.181Z,8.57
2024-01-11T15:01:52.371Z,7.60
2024-01-11T15:06:54.236Z,6.85
2024-01-11T15:11:56.333Z,6.90
2024-01-11T15:16:58.721Z,8.00
2024-01-11T15:22:00.842Z,8.05
2024-01-11T15:27:03.693Z,7.95
2024-01-11T15:32:06.958Z,9.95
2024-01-11T15:37:09.021Z,8.07
2024-01-11T15:42:10.788Z,8.13
2024-01-11T15:47:13.006Z,8.75
2024-01-11T15:52:14.812Z,8.23
2024-01-11T15:57:19.192Z,8.18
2024-01-11T16:02:21.718Z,9.23
2024-01-11T16:07:23.589Z,8.13
2024-01-11T16:12:25.551Z,9.88
2024-01-11T16:17:28.041Z,9.25
2024-01-11T16:22:30.551Z,8.75
2024-01-11T16:27:32.826Z,9.07
2024-01-11T16:32:35.716Z,8.80
2024-01-11T16:37:37.571Z,9.55
2024-01-11T16:42:39.783Z,9.60
2024-01-11T16:47:41.785Z,8.70
2024-01-11T16:52:43.885Z,9.70
2024-01-11T16:57:45.664Z,8.73
2024-01-11T17:02:47.525Z,8.25
2024-01-11T17:07:49.244Z,8.20
2024-01-11T17:12:51.090Z,10.23
2024-01-11T17:17:52.994Z,9.95
2024-01-11T17:22:55.374Z,9.95
2024-01-11T17:27:57.334Z,9.98
2024-01-11T17:32:59.577Z,10.65
2024-01-11T17:38:01.442Z,9.38
2024-01-11T17:43:03.616Z,8.60
2024-01-11T17:48:06.322Z,7.93
2024-01-11T17:53:08.561Z,7.60
2024-01-11T17:58:10.385Z,9.40
2024-01-11T18:03:14.369Z,8.75
2024-01-11T18:08:16.394Z,17.35
2024-01-11T18:13:19.690Z,9.20
2024-01-11T18:18:21.732Z,10.68
2024-01-11T18:23:23.816Z,10.50
2024-01-11T18:28:25.552Z,11.50
2024-01-11T18:33:28.114Z,9.10
2024-01-11T18:38:30.123Z,9.38
2024-01-11T18:43:31.885Z,10.00
2024-01-11T18:48:36.547Z,11.52
2024-01-11T18:53:38.460Z,11.40
2024-01-11T18:58:40.229Z,11.15
2024-01-11T19:03:42.223Z,11.20
2024-01-11T19:08:44.109Z,12.77
2024-01-11T19:13:45.997Z,11.43
2024-01-11T19:18:50.968Z,14.73
2024-01-11T19:23:54.611Z,17.13
2024-01-11T19:28:56.542Z,15.40
2024-01-11T19:33:59.020Z,14.73
2024-01-11T19:39:02.824Z,13.38
2024-01-11T19:44:04.854Z,14.27
2024-01-11T19:49:08.305Z,13.00
2024-01-11T19:54:10.054Z,12.75
2024-01-11T19:59:12.508Z,12.65
2024-01-11T20:04:14.562Z,12.23
2024-01-11T20:09:16.785Z,12.45
2024-01-11T20:14:18.517Z,13.02
2024-01-11T20:19:21.595Z,11.65
2024-01-11T20:24:23.367Z,13.02
2024-01-11T20:29:27.457Z,12.20
2024-01-11T20:34:29.576Z,12.30
2024-01-11T20:39:31.576Z,12.00
2024-01-11T20:44:36.701Z,12.02
2024-01-11T20:49:39.454Z,12.50
2024-01-11T20:54:41.233Z,13.07
2024-01-11T20:59:44.860Z,11.27
2024-01-11T21:04:46.603Z,12.77
2024-01-11T21:09:48.306Z,12.48
2024-01-11T21:14:50.320Z,12.40
2024-01-11T21:19:52.371Z,12.60
2024-01-11T21:24:55.083Z,12.32
2024-01-11T21:29:58.420Z,12.07
2024-01-11T21:35:00.234Z,13.20
2024-01-11T21:40:02.004Z,14.13
2024-01-11T21:45:05.387Z,13.60
2024-01-11T21:50:07.702Z,13.55
2024-01-11T21:55:09.797Z,13.63
2024-01-11T22:00:13.582Z,13.40
2024-01-11T22:05:15.496Z,13.88
2024-01-11T22:10:17.567Z,14.55
2024-01-11T22:15:19.465Z,14.90
2024-01-11T22:20:21.726Z,14.80
2024-01-11T22:25:24.451Z,14.73
2024-01-11T22:30:26.264Z,16.48
2024-01-11T22:35:28.174Z,16.52
2024-01-11T22:40:30.932Z,15.90
2024-01-11T22:45:35.182Z,16.35
2024-01-11T22:50:37.055Z,15.85
2024-01-11T22:55:38.968Z,17.35
2024-01-11T23:00:40.790Z,18.55
2024-01-11T23:05:43.266Z,19.98
2024-01-11T23:10:45.294Z,17.33
2024-01-11T23:15:47.106Z,15.43
2024-01-11T23:20:49.120Z,15.98
2024-01-11T23:25:50.958Z,15.38
2024-01-11T23:30:53.876Z,13.82
2024-01-11T23:35:56.628Z,11.15
2024-01-11T23:40:58.435Z,12.05
2024-01-11T23:46:00.240Z,11.52
2024-01-11T23:51:02.365Z,12.65
2024-01-11T23:56:04.794Z,12.45
